Disney Magic — C6PT7 — position and weather

sailwx.info

Track history (hours):
 
Tides and Currents Weather Stations Pressure Air Temp Water Temp Dewpoint Dewpoint Depression Visibility Wind Speed Wind Dir Waves Ship Positions

Disney Magic

Last reported at 2019-Jul-22 07:52 UTC. Time now 2019-Jul-22 13:46 UTC.
Position N 54°21' E 000°13'.

Type: Passenger vessel. MMSI: 308516000.

Date/timePositionNaut miles runAvg speedWind from/ knotsBaromVisibWave heightAir tempDewpointWater temp
2019-Jul-22 07:52N 54°21' E 000°13'616.2
2019-Jul-22 07:30N 54°15' E 000°15'816.2
2019-Jul-22 07:00N 54°08' E 000°21'816.2
2019-Jul-22 06:30N 54°00' E 000°27'816.5
2019-Jul-22 06:00N 53°53' E 000°35'1116.6
2019-Jul-22 05:19N 53°44' E 000°46'516.9
2019-Jul-22 05:00N 53°40' E 000°51'816.8
2019-Jul-22 04:31N 53°32' E 000°57'3016.8
2019-Jul-22 02:43N 53°10' E 001°32'417.8
2019-Jul-22 02:29N 53°10' E 001°38'817.1
2019-Jul-22 02:00N 53°07' E 001°51'817.1
2019-Jul-22 01:31N 53°02' E 002°02'816.7
2019-Jul-22 01:01N 52°57' E 002°14'816.1
2019-Jul-22 00:31N 52°50' E 002°19'815.4
2019-Jul-22 00:01N 52°42' E 002°22'815.8
2019-Jul-21 23:31N 52°35' E 002°17'815.6
2019-Jul-21 23:01N 52°28' E 002°12'816.0
2019-Jul-21 22:31N 52°20' E 002°07'816.1
2019-Jul-21 22:01N 52°13' E 002°02'816.4
2019-Jul-21 21:31N 52°05' E 001°56'817.0
2019-Jul-21 21:01N 51°58' E 001°51'917.4
2019-Jul-21 20:31N 51°49' E 001°49'918.0
2019-Jul-21 20:00N 51°40' E 001°50'918.0
2019-Jul-21 19:31N 51°31' E 001°49'918.2
2019-Jul-21 19:00N 51°22' E 001°45'918.2
2019-Jul-21 18:31N 51°14' E 001°40'917.8
2019-Jul-21 18:01N 51°08' E 001°29'611.6
2019-Jul-21 17:30N 51°07' E 001°20'0 0.5
2019-Jul-21 16:36N 51°07' E 001°19'0 0.0
2019-Jul-21 16:15N 51°07' E 001°19'0 0.0
2019-Jul-21 15:00N 51°07' E 001°19'0 0.0
2019-Jul-21 14:27N 51°07' E 001°19'0 0.0
2019-Jul-21 13:57N 51°07' E 001°19'0 0.0
2019-Jul-21 13:24N 51°07' E 001°19'0 0.0
2019-Jul-21 12:57N 51°07' E 001°19'0 0.0
2019-Jul-21 12:27N 51°07' E 001°19'0 0.0
2019-Jul-21 11:57N 51°07' E 001°19'0 0.0
2019-Jul-21 11:30N 51°07' E 001°19'0 0.0
2019-Jul-21 10:54N 51°07' E 001°19'0 0.0
2019-Jul-21 10:30N 51°07' E 001°19'0 0.0
2019-Jul-21 09:30N 51°07' E 001°19'0 0.0
2019-Jul-21 09:00N 51°07' E 001°19'0 0.0
2019-Jul-21 07:27N 51°07' E 001°19'0 0.0
2019-Jul-21 06:54N 51°07' E 001°19'0 0.0
2019-Jul-21 06:30N 51°07' E 001°19'0 0.0
2019-Jul-21 05:48N 51°07' E 001°19'0 0.0
2019-Jul-21 05:27N 51°07' E 001°19'0 0.0
2019-Jul-21 05:00N 51°07' E 001°19'0 0.5
2019-Jul-21 04:30N 51°07' E 001°20'4 8.1
2019-Jul-21 04:00N 51°07' E 001°26'4 7.8
2019-Jul-21 03:30N 51°04' E 001°31'3 6.7
2019-Jul-21 03:00N 51°01' E 001°31'510.7
2019-Jul-21 02:30N 50°56' E 001°26'612.7
2019-Jul-21 02:00N 50°50' E 001°24'1418.7
2019-Jul-21 01:15N 50°37' E 001°14'519.0
2019-Jul-21 01:00N 50°35' E 001°08'918.6
2019-Jul-21 00:30N 50°31' E 000°55'1019.1
2019-Jul-21 00:00N 50°28' E 000°41'1019.5
2019-Jul-20 23:30N 50°25' E 000°26'1019.8
2019-Jul-20 23:00N 50°23' E 000°11'1019.9
2019-Jul-20 22:31N 50°22' W 000°04'1019.9
2019-Jul-20 22:00N 50°22' W 000°20'1122.9
2019-Jul-20 21:30N 50°20' W 000°38'1121.9
2019-Jul-20 21:01N 50°23' W 000°54'1223.3
2019-Jul-20 20:31N 50°22' W 001°12'1122.5
2019-Jul-20 20:00N 50°21' W 001°30'1121.5
2019-Jul-20 19:31N 50°23' W 001°46'918.0
2019-Jul-20 19:00N 50°26' W 001°60'816.9
2019-Jul-20 18:30N 50°30' W 002°11'816.4
2019-Jul-20 18:00N 50°34' W 002°22'3 5.1
2019-Jul-20 17:30N 50°34' W 002°26'0 0.2
2019-Jul-20 16:54N 50°34' W 002°26'0 0.0
2019-Jul-20 16:30N 50°34' W 002°26'0 0.0
2019-Jul-20 16:00N 50°34' W 002°26'0 0.0
2019-Jul-20 15:30N 50°34' W 002°26'0 0.0
2019-Jul-20 15:00N 50°34' W 002°26'0 0.0
2019-Jul-20 14:30N 50°34' W 002°26'0 0.0
2019-Jul-20 14:00N 50°34' W 002°26'0 0.0
2019-Jul-20 13:30N 50°34' W 002°26'0 0.0
2019-Jul-20 13:00N 50°34' W 002°26'0 0.0
2019-Jul-20 12:30N 50°34' W 002°26'0 0.0
2019-Jul-20 12:00N 50°34' W 002°26'0 0.0
2019-Jul-20 11:30N 50°34' W 002°26'0 0.0
2019-Jul-20 11:00N 50°34' W 002°26'0 0.0
2019-Jul-20 10:30N 50°34' W 002°26'0 0.0
2019-Jul-20 10:00N 50°34' W 002°26'0 0.0
2019-Jul-20 09:30N 50°34' W 002°26'0 0.0
2019-Jul-20 09:00N 50°34' W 002°26'0 0.0
2019-Jul-20 08:30N 50°34' W 002°26'0 0.0
2019-Jul-20 08:00N 50°34' W 002°26'0 0.0
2019-Jul-20 07:30N 50°34' W 002°26'0 0.0
2019-Jul-20 07:00N 50°34' W 002°26'0 0.0
2019-Jul-20 06:30N 50°34' W 002°26'1 1.1
2019-Jul-20 06:00N 50°35' W 002°25'4 7.1
2019-Jul-20 05:30N 50°33' W 002°20'816.7
2019-Jul-20 05:01N 50°26' W 002°15'815.1
2019-Jul-20 04:30N 50°19' W 002°20'815.3
2019-Jul-20 04:00N 50°16' W 002°31'815.7
2019-Jul-20 03:31N 50°13' W 002°43'816.0
2019-Jul-20 03:01N 50°10' W 002°54'815.9
2019-Jul-20 02:30N 50°05' W 003°05'816.4
2019-Jul-20 02:01N 49°60' W 003°14'816.8
2019-Jul-20 01:31N 49°54' W 003°24'917.1
2019-Jul-20 01:01N 49°48' W 003°34'917.1
2019-Jul-20 00:31N 49°43' W 003°44'917.2
2019-Jul-20 00:01N 49°37' W 003°54'917.2
2019-Jul-19 23:31N 49°31' W 004°04'917.3
2019-Jul-19 23:00N 49°26' W 004°14'4218.9
2019-Jul-19 20:46N 48°55' W 004°58'521.2
2019-Jul-19 20:31N 48°50' W 005°03'1121.3
2019-Jul-19 20:01N 48°42' W 005°12'1121.5
2019-Jul-19 19:30N 48°33' W 005°21'916.6
2019-Jul-19 18:58N 48°24' W 005°22'817.1
2019-Jul-19 18:31N 48°21' W 005°11'917.9
2019-Jul-19 18:00N 48°16' W 004°59'918.4
2019-Jul-19 17:30N 48°17' W 004°45'714.1
2019-Jul-19 17:01N 48°20' W 004°36'611.2
2019-Jul-19 16:31N 48°22' W 004°28'1 1.8
2019-Jul-19 15:58N 48°23' W 004°27'0 0.0
2019-Jul-19 15:28N 48°23' W 004°27'0 0.0
2019-Jul-19 14:58N 48°23' W 004°27'0 0.0
2019-Jul-19 14:28N 48°23' W 004°27'0 0.0
2019-Jul-19 13:58N 48°23' W 004°27'0 0.0
2019-Jul-19 13:28N 48°23' W 004°27'0 0.0
2019-Jul-19 12:58N 48°23' W 004°27'0 0.0
2019-Jul-19 12:28N 48°23' W 004°27'0 0.0
2019-Jul-19 11:58N 48°23' W 004°27'0 0.0
2019-Jul-19 11:28N 48°23' W 004°27'0 0.0
2019-Jul-19 10:58N 48°23' W 004°27'0 0.0
2019-Jul-19 10:28N 48°23' W 004°27'0 0.0
2019-Jul-19 09:58N 48°23' W 004°27'0 0.0
2019-Jul-19 09:28N 48°23' W 004°27'0 0.0
2019-Jul-19 08:58N 48°23' W 004°27'0 0.0
2019-Jul-19 08:28N 48°23' W 004°27'0 0.0
2019-Jul-19 07:58N 48°23' W 004°27'0 0.0
2019-Jul-19 07:28N 48°23' W 004°27'0 0.0
2019-Jul-19 06:58N 48°23' W 004°27'0 0.0
2019-Jul-19 06:28N 48°23' W 004°27'0 0.0
2019-Jul-19 05:58N 48°23' W 004°27'0 0.0
2019-Jul-19 05:28N 48°23' W 004°27'0 0.0
2019-Jul-19 05:00N 48°23' W 004°27'1 2.3
2019-Jul-19 04:30N 48°22' W 004°28'713.3
2019-Jul-19 04:00N 48°20' W 004°38'510.3
2019-Jul-19 03:30N 48°17' W 004°44'613.0
2019-Jul-19 03:01N 48°14' W 004°53'815.8
2019-Jul-19 02:31N 48°10' W 005°03'816.1
2019-Jul-19 02:01N 48°06' W 005°13'815.6
2019-Jul-19 01:30N 47°59' W 005°20'816.8
2019-Jul-19 01:00N 47°52' W 005°27'1017.8
2019-Jul-19 00:27N 47°44' W 005°35'817.3
2019-Jul-19 00:00N 47°38' W 005°41'1117.4
2019-Jul-18 23:23N 47°29' W 005°50'916.4
2019-Jul-18 22:50N 47°21' W 005°57'816.8
2019-Jul-18 22:20N 47°13' W 006°03'616.8
2019-Jul-18 21:57N 47°08' W 006°08'917.3
2019-Jul-18 21:27N 47°00' W 006°14'1417.0
2019-Jul-18 20:38N 46°50' W 006°27'31020.2
2019-Jul-18 05:16N 42°14' W 009°46'721.0
2019-Jul-18 04:56N 42°07' W 009°45'4720.5
2019-Jul-18 02:37N 41°20' W 009°45'220.0
2019-Jul-18 02:31N 41°17' W 009°45'1020.1
2019-Jul-18 02:01N 41°07' W 009°45'1020.0
2019-Jul-18 01:30N 40°57' W 009°45'1019.8
2019-Jul-18 01:00N 40°47' W 009°44'1419.6
2019-Jul-18 00:17N 40°33' W 009°44'619.7
2019-Jul-18 00:00N 40°28' W 009°44'3019.5
2019-Jul-17 22:28N 39°58' W 009°44'1419.5
2019-Jul-17 21:45N 39°44' W 009°44'919.5
2019-Jul-17 21:19N 39°35' W 009°43'719.5
2019-Jul-17 20:58N 39°29' W 009°43'919.0
2019-Jul-17 20:30N 39°20' W 009°43'918.8
2019-Jul-17 20:00N 39°10' W 009°43'918.9
2019-Jul-17 19:31N 39°01' W 009°43'1019.1
2019-Jul-17 19:00N 38°51' W 009°43'1019.0
2019-Jul-17 18:30N 38°42' W 009°42'714.9
2019-Jul-17 18:00N 38°37' W 009°35'816.6
2019-Jul-17 17:31N 38°36' W 009°24'816.6
2019-Jul-17 17:00N 38°41' W 009°16'5 9.7
2019-Jul-17 16:31N 38°42' W 009°09'2 3.1
2019-Jul-17 15:58N 38°43' W 009°08'0 0.0
2019-Jul-17 15:28N 38°43' W 009°08'0 0.0
2019-Jul-17 14:59N 38°43' W 009°08'0 0.0
2019-Jul-17 14:29N 38°43' W 009°08'0 0.0
2019-Jul-17 13:58N 38°43' W 009°08'0 0.0
2019-Jul-17 13:29N 38°43' W 009°08'0 0.0
2019-Jul-17 12:58N 38°43' W 009°08'0 0.0
2019-Jul-17 12:29N 38°43' W 009°08'0 0.0
2019-Jul-17 11:59N 38°43' W 009°08'0 0.0
2019-Jul-17 11:28N 38°43' W 009°08'0 0.0
2019-Jul-17 10:58N 38°43' W 009°08'0 0.0
2019-Jul-17 10:28N 38°43' W 009°08'0 0.0
2019-Jul-17 09:58N 38°43' W 009°08'0 0.0
2019-Jul-17 09:28N 38°43' W 009°08'0 0.0
2019-Jul-17 08:58N 38°43' W 009°08'0 0.0
2019-Jul-17 08:22N 38°43' W 009°08'0 0.0
2019-Jul-17 07:58N 38°43' W 009°08'0 0.0
2019-Jul-17 07:28N 38°43' W 009°08'0 0.0
2019-Jul-17 06:58N 38°43' W 009°08'1 1.4
2019-Jul-17 06:30N 38°42' W 009°08'5 9.5
2019-Jul-17 06:00N 38°41' W 009°14'612.3
2019-Jul-17 05:31N 38°38' W 009°21'816.2
2019-Jul-17 05:01N 38°33' W 009°29'815.9
2019-Jul-17 04:31N 38°25' W 009°29'816.2
2019-Jul-17 04:01N 38°17' W 009°29'816.3
2019-Jul-17 03:31N 38°09' W 009°28'816.4
2019-Jul-17 03:01N 38°00' W 009°27'815.7
2019-Jul-17 02:30N 37°52' W 009°26'816.4
2019-Jul-17 02:00N 37°44' W 009°26'1217.9
2019-Jul-17 01:21N 37°33' W 009°26'2919.6
2019-Jul-16 23:51N 37°03' W 009°23'719.4
2019-Jul-16 23:30N 36°57' W 009°21'1519.5
2019-Jul-16 22:44N 36°45' W 009°09'519.6
2019-Jul-16 22:30N 36°43' W 009°04'1019.4
2019-Jul-16 22:00N 36°42' W 008°52'1019.8
2019-Jul-16 21:31N 36°41' W 008°40'1019.8
2019-Jul-16 21:00N 36°40' W 008°28'1019.7
2019-Jul-16 20:30N 36°40' W 008°15'1019.4
2019-Jul-16 20:00N 36°39' W 008°03'1019.5
2019-Jul-16 19:30N 36°39' W 007°51'1019.7
2019-Jul-16 19:00N 36°38' W 007°39'1019.9
2019-Jul-16 18:30N 36°38' W 007°27'158 7.0
2019-Jul-15 19:53N 36°12' W 004°14'7017.5
2019-Jul-15 15:52N 36°23' W 002°48'819.9
2019-Jul-15 15:29N 36°24' W 002°38'919.9
2019-Jul-15 15:00N 36°25' W 002°26'1019.5
2019-Jul-15 14:30N 36°26' W 002°14'918.4
2019-Jul-15 14:00N 36°32' W 002°06'22416.7
2019-Jul-15 00:34N 39°26' E 000°53'3817.0
2019-Jul-14 22:21N 39°60' E 001°17'3217.0
2019-Jul-14 20:28N 40°28' E 001°37'1017.0
2019-Jul-14 19:54N 40°36' E 001°43'2517.0
2019-Jul-14 18:26N 40°58' E 001°59'717.1
2019-Jul-14 18:00N 41°05' E 002°03'815.6
2019-Jul-14 17:30N 41°12' E 002°08'814.3
2019-Jul-14 16:58N 41°19' E 002°10'2 0.5
2019-Jul-14 13:07N 41°21' E 002°10'0 0.0
2019-Jul-14 12:58N 41°21' E 002°10'0 0.0
2019-Jul-14 12:28N 41°21' E 002°10'0 0.0
2019-Jul-14 11:58N 41°21' E 002°10'0 0.0
2019-Jul-14 11:28N 41°21' E 002°10'0 0.0
2019-Jul-14 10:58N 41°21' E 002°10'0 0.0
2019-Jul-14 10:28N 41°21' E 002°10'0 0.0
2019-Jul-14 09:55N 41°21' E 002°10'0 0.0
2019-Jul-14 09:28N 41°21' E 002°10'0 0.0
2019-Jul-14 08:58N 41°21' E 002°10'3 0.5
2019-Jul-14 03:07N 41°18' E 002°10'1 9.2
2019-Jul-14 03:00N 41°18' E 002°11'4311.0
2019-Jul-13 23:04N 41°16' E 003°08'1 9.4
2019-Jul-13 23:00N 41°16' E 003°09'5 9.5
2019-Jul-13 22:30N 41°16' E 003°15'5 9.4
2019-Jul-13 22:00N 41°16' E 003°22'5 9.1
2019-Jul-13 21:30N 41°16' E 003°28'4 8.8
2019-Jul-13 21:00N 41°16' E 003°34'4 8.7
2019-Jul-13 20:30N 41°16' E 003°39'9 8.6
2019-Jul-13 19:25N 41°16' E 003°52'4 8.7
2019-Jul-13 19:00N 41°16' E 003°57'13512.2
2019-Jul-13 07:58N 41°17' E 006°56'1816.1
2019-Jul-13 06:51N 41°17' E 007°20'616.1
2019-Jul-13 06:30N 41°17' E 007°27'816.1
2019-Jul-13 06:00N 41°17' E 007°38'4216.3
2019-Jul-13 03:26N 41°17' E 008°34'716.5
2019-Jul-13 03:01N 41°17' E 008°43'4315.2
2019-Jul-13 00:11N 41°29' E 009°38'2216.2
2019-Jul-12 22:49N 41°37' E 010°06'1616.8
2019-Jul-12 21:53N 41°50' E 010°18'716.3
2019-Jul-12 21:29N 41°55' E 010°24'1914.3
2019-Jul-12 20:11N 41°50' E 010°48'  
Track history (hours):
 
Tides and Currents Weather Stations Pressure Air Temp Water Temp Dewpoint Dewpoint Depression Visibility Wind Speed Wind Dir Waves Ship Positions

Disney Magic

Last reported at 2019-Jul-22 07:52 UTC. Time now 2019-Jul-22 13:46 UTC.
Position N 54°21' E 000°13'.

Type: Passenger vessel. MMSI: 308516000.

Date/timePositionNaut miles runAvg speedWind from/ knotsBaromVisibWave heightAir tempDewpointWater temp
2019-Jul-22 07:52N 54°21' E 000°13'616.2
2019-Jul-22 07:30N 54°15' E 000°15'816.2
2019-Jul-22 07:00N 54°08' E 000°21'816.2
2019-Jul-22 06:30N 54°00' E 000°27'816.5
2019-Jul-22 06:00N 53°53' E 000°35'1116.6
2019-Jul-22 05:19N 53°44' E 000°46'516.9
2019-Jul-22 05:00N 53°40' E 000°51'816.8
2019-Jul-22 04:31N 53°32' E 000°57'3016.8
2019-Jul-22 02:43N 53°10' E 001°32'417.8
2019-Jul-22 02:29N 53°10' E 001°38'817.1
2019-Jul-22 02:00N 53°07' E 001°51'817.1
2019-Jul-22 01:31N 53°02' E 002°02'816.7
2019-Jul-22 01:01N 52°57' E 002°14'816.1
2019-Jul-22 00:31N 52°50' E 002°19'815.4
2019-Jul-22 00:01N 52°42' E 002°22'815.8
2019-Jul-21 23:31N 52°35' E 002°17'815.6
2019-Jul-21 23:01N 52°28' E 002°12'816.0
2019-Jul-21 22:31N 52°20' E 002°07'816.1
2019-Jul-21 22:01N 52°13' E 002°02'816.4
2019-Jul-21 21:31N 52°05' E 001°56'817.0
2019-Jul-21 21:01N 51°58' E 001°51'917.4
2019-Jul-21 20:31N 51°49' E 001°49'918.0
2019-Jul-21 20:00N 51°40' E 001°50'918.0
2019-Jul-21 19:31N 51°31' E 001°49'918.2
2019-Jul-21 19:00N 51°22' E 001°45'918.2
2019-Jul-21 18:31N 51°14' E 001°40'917.8
2019-Jul-21 18:01N 51°08' E 001°29'611.6
2019-Jul-21 17:30N 51°07' E 001°20'0 0.5
2019-Jul-21 16:36N 51°07' E 001°19'0 0.0
2019-Jul-21 16:15N 51°07' E 001°19'0 0.0
2019-Jul-21 15:00N 51°07' E 001°19'0 0.0
2019-Jul-21 14:27N 51°07' E 001°19'0 0.0
2019-Jul-21 13:57N 51°07' E 001°19'0 0.0
2019-Jul-21 13:24N 51°07' E 001°19'0 0.0
2019-Jul-21 12:57N 51°07' E 001°19'0 0.0
2019-Jul-21 12:27N 51°07' E 001°19'0 0.0
2019-Jul-21 11:57N 51°07' E 001°19'0 0.0
2019-Jul-21 11:30N 51°07' E 001°19'0 0.0
2019-Jul-21 10:54N 51°07' E 001°19'0 0.0
2019-Jul-21 10:30N 51°07' E 001°19'0 0.0
2019-Jul-21 09:30N 51°07' E 001°19'0 0.0
2019-Jul-21 09:00N 51°07' E 001°19'0 0.0
2019-Jul-21 07:27N 51°07' E 001°19'0 0.0
2019-Jul-21 06:54N 51°07' E 001°19'0 0.0
2019-Jul-21 06:30N 51°07' E 001°19'0 0.0
2019-Jul-21 05:48N 51°07' E 001°19'0 0.0
2019-Jul-21 05:27N 51°07' E 001°19'0 0.0
2019-Jul-21 05:00N 51°07' E 001°19'0 0.5
2019-Jul-21 04:30N 51°07' E 001°20'4 8.1
2019-Jul-21 04:00N 51°07' E 001°26'4 7.8
2019-Jul-21 03:30N 51°04' E 001°31'3 6.7
2019-Jul-21 03:00N 51°01' E 001°31'510.7
2019-Jul-21 02:30N 50°56' E 001°26'612.7
2019-Jul-21 02:00N 50°50' E 001°24'1418.7
2019-Jul-21 01:15N 50°37' E 001°14'519.0
2019-Jul-21 01:00N 50°35' E 001°08'918.6
2019-Jul-21 00:30N 50°31' E 000°55'1019.1
2019-Jul-21 00:00N 50°28' E 000°41'1019.5
2019-Jul-20 23:30N 50°25' E 000°26'1019.8
2019-Jul-20 23:00N 50°23' E 000°11'1019.9
2019-Jul-20 22:31N 50°22' W 000°04'1019.9
2019-Jul-20 22:00N 50°22' W 000°20'1122.9
2019-Jul-20 21:30N 50°20' W 000°38'1121.9
2019-Jul-20 21:01N 50°23' W 000°54'1223.3
2019-Jul-20 20:31N 50°22' W 001°12'1122.5
2019-Jul-20 20:00N 50°21' W 001°30'1121.5
2019-Jul-20 19:31N 50°23' W 001°46'918.0
2019-Jul-20 19:00N 50°26' W 001°60'816.9
2019-Jul-20 18:30N 50°30' W 002°11'816.4
2019-Jul-20 18:00N 50°34' W 002°22'3 5.1
2019-Jul-20 17:30N 50°34' W 002°26'0 0.2
2019-Jul-20 16:54N 50°34' W 002°26'0 0.0
2019-Jul-20 16:30N 50°34' W 002°26'0 0.0
2019-Jul-20 16:00N 50°34' W 002°26'0 0.0
2019-Jul-20 15:30N 50°34' W 002°26'0 0.0
2019-Jul-20 15:00N 50°34' W 002°26'0 0.0
2019-Jul-20 14:30N 50°34' W 002°26'0 0.0
2019-Jul-20 14:00N 50°34' W 002°26'0 0.0
2019-Jul-20 13:30N 50°34' W 002°26'0 0.0
2019-Jul-20 13:00N 50°34' W 002°26'0 0.0
2019-Jul-20 12:30N 50°34' W 002°26'0 0.0
2019-Jul-20 12:00N 50°34' W 002°26'0 0.0
2019-Jul-20 11:30N 50°34' W 002°26'0 0.0
2019-Jul-20 11:00N 50°34' W 002°26'0 0.0
2019-Jul-20 10:30N 50°34' W 002°26'0 0.0
2019-Jul-20 10:00N 50°34' W 002°26'0 0.0
2019-Jul-20 09:30N 50°34' W 002°26'0 0.0
2019-Jul-20 09:00N 50°34' W 002°26'0 0.0
2019-Jul-20 08:30N 50°34' W 002°26'0 0.0
2019-Jul-20 08:00N 50°34' W 002°26'0 0.0
2019-Jul-20 07:30N 50°34' W 002°26'0 0.0
2019-Jul-20 07:00N 50°34' W 002°26'0 0.0
2019-Jul-20 06:30N 50°34' W 002°26'1 1.1
2019-Jul-20 06:00N 50°35' W 002°25'4 7.1
2019-Jul-20 05:30N 50°33' W 002°20'816.7
2019-Jul-20 05:01N 50°26' W 002°15'815.1
2019-Jul-20 04:30N 50°19' W 002°20'815.3
2019-Jul-20 04:00N 50°16' W 002°31'815.7
2019-Jul-20 03:31N 50°13' W 002°43'816.0
2019-Jul-20 03:01N 50°10' W 002°54'815.9
2019-Jul-20 02:30N 50°05' W 003°05'816.4
2019-Jul-20 02:01N 49°60' W 003°14'816.8
2019-Jul-20 01:31N 49°54' W 003°24'917.1
2019-Jul-20 01:01N 49°48' W 003°34'917.1
2019-Jul-20 00:31N 49°43' W 003°44'917.2
2019-Jul-20 00:01N 49°37' W 003°54'917.2
2019-Jul-19 23:31N 49°31' W 004°04'917.3
2019-Jul-19 23:00N 49°26' W 004°14'4218.9
2019-Jul-19 20:46N 48°55' W 004°58'521.2
2019-Jul-19 20:31N 48°50' W 005°03'1121.3
2019-Jul-19 20:01N 48°42' W 005°12'1121.5
2019-Jul-19 19:30N 48°33' W 005°21'916.6
2019-Jul-19 18:58N 48°24' W 005°22'817.1
2019-Jul-19 18:31N 48°21' W 005°11'917.9
2019-Jul-19 18:00N 48°16' W 004°59'918.4
2019-Jul-19 17:30N 48°17' W 004°45'714.1
2019-Jul-19 17:01N 48°20' W 004°36'611.2
2019-Jul-19 16:31N 48°22' W 004°28'1 1.8
2019-Jul-19 15:58N 48°23' W 004°27'0 0.0
2019-Jul-19 15:28N 48°23' W 004°27'0 0.0
2019-Jul-19 14:58N 48°23' W 004°27'0 0.0
2019-Jul-19 14:28N 48°23' W 004°27'0 0.0
2019-Jul-19 13:58N 48°23' W 004°27'0 0.0
2019-Jul-19 13:28N 48°23' W 004°27'0 0.0
2019-Jul-19 12:58N 48°23' W 004°27'0 0.0
2019-Jul-19 12:28N 48°23' W 004°27'0 0.0
2019-Jul-19 11:58N 48°23' W 004°27'0 0.0
2019-Jul-19 11:28N 48°23' W 004°27'0 0.0
2019-Jul-19 10:58N 48°23' W 004°27'0 0.0
2019-Jul-19 10:28N 48°23' W 004°27'0 0.0
2019-Jul-19 09:58N 48°23' W 004°27'0 0.0
2019-Jul-19 09:28N 48°23' W 004°27'0 0.0
2019-Jul-19 08:58N 48°23' W 004°27'0 0.0
2019-Jul-19 08:28N 48°23' W 004°27'0 0.0
2019-Jul-19 07:58N 48°23' W 004°27'0 0.0
2019-Jul-19 07:28N 48°23' W 004°27'0 0.0
2019-Jul-19 06:58N 48°23' W 004°27'0 0.0
2019-Jul-19 06:28N 48°23' W 004°27'0 0.0
2019-Jul-19 05:58N 48°23' W 004°27'0 0.0
2019-Jul-19 05:28N 48°23' W 004°27'0 0.0
2019-Jul-19 05:00N 48°23' W 004°27'1 2.3
2019-Jul-19 04:30N 48°22' W 004°28'713.3
2019-Jul-19 04:00N 48°20' W 004°38'510.3
2019-Jul-19 03:30N 48°17' W 004°44'613.0
2019-Jul-19 03:01N 48°14' W 004°53'815.8
2019-Jul-19 02:31N 48°10' W 005°03'816.1
2019-Jul-19 02:01N 48°06' W 005°13'815.6
2019-Jul-19 01:30N 47°59' W 005°20'816.8
2019-Jul-19 01:00N 47°52' W 005°27'1017.8
2019-Jul-19 00:27N 47°44' W 005°35'817.3
2019-Jul-19 00:00N 47°38' W 005°41'1117.4
2019-Jul-18 23:23N 47°29' W 005°50'916.4
2019-Jul-18 22:50N 47°21' W 005°57'816.8
2019-Jul-18 22:20N 47°13' W 006°03'616.8
2019-Jul-18 21:57N 47°08' W 006°08'917.3
2019-Jul-18 21:27N 47°00' W 006°14'1417.0
2019-Jul-18 20:38N 46°50' W 006°27'31020.2
2019-Jul-18 05:16N 42°14' W 009°46'721.0
2019-Jul-18 04:56N 42°07' W 009°45'4720.5
2019-Jul-18 02:37N 41°20' W 009°45'220.0
2019-Jul-18 02:31N 41°17' W 009°45'1020.1
2019-Jul-18 02:01N 41°07' W 009°45'1020.0
2019-Jul-18 01:30N 40°57' W 009°45'1019.8
2019-Jul-18 01:00N 40°47' W 009°44'1419.6
2019-Jul-18 00:17N 40°33' W 009°44'619.7
2019-Jul-18 00:00N 40°28' W 009°44'3019.5
2019-Jul-17 22:28N 39°58' W 009°44'1419.5
2019-Jul-17 21:45N 39°44' W 009°44'919.5
2019-Jul-17 21:19N 39°35' W 009°43'719.5
2019-Jul-17 20:58N 39°29' W 009°43'919.0
2019-Jul-17 20:30N 39°20' W 009°43'918.8
2019-Jul-17 20:00N 39°10' W 009°43'918.9
2019-Jul-17 19:31N 39°01' W 009°43'1019.1
2019-Jul-17 19:00N 38°51' W 009°43'1019.0
2019-Jul-17 18:30N 38°42' W 009°42'714.9
2019-Jul-17 18:00N 38°37' W 009°35'816.6
2019-Jul-17 17:31N 38°36' W 009°24'816.6
2019-Jul-17 17:00N 38°41' W 009°16'5 9.7
2019-Jul-17 16:31N 38°42' W 009°09'2 3.1
2019-Jul-17 15:58N 38°43' W 009°08'0 0.0
2019-Jul-17 15:28N 38°43' W 009°08'0 0.0
2019-Jul-17 14:59N 38°43' W 009°08'0 0.0
2019-Jul-17 14:29N 38°43' W 009°08'0 0.0
2019-Jul-17 13:58N 38°43' W 009°08'0 0.0
2019-Jul-17 13:29N 38°43' W 009°08'0 0.0
2019-Jul-17 12:58N 38°43' W 009°08'0 0.0
2019-Jul-17 12:29N 38°43' W 009°08'0 0.0
2019-Jul-17 11:59N 38°43' W 009°08'0 0.0
2019-Jul-17 11:28N 38°43' W 009°08'0 0.0
2019-Jul-17 10:58N 38°43' W 009°08'0 0.0
2019-Jul-17 10:28N 38°43' W 009°08'0 0.0
2019-Jul-17 09:58N 38°43' W 009°08'0 0.0
2019-Jul-17 09:28N 38°43' W 009°08'0 0.0
2019-Jul-17 08:58N 38°43' W 009°08'0 0.0
2019-Jul-17 08:22N 38°43' W 009°08'0 0.0
2019-Jul-17 07:58N 38°43' W 009°08'0 0.0
2019-Jul-17 07:28N 38°43' W 009°08'0 0.0
2019-Jul-17 06:58N 38°43' W 009°08'1 1.4
2019-Jul-17 06:30N 38°42' W 009°08'5 9.5
2019-Jul-17 06:00N 38°41' W 009°14'612.3
2019-Jul-17 05:31N 38°38' W 009°21'816.2
2019-Jul-17 05:01N 38°33' W 009°29'815.9
2019-Jul-17 04:31N 38°25' W 009°29'816.2
2019-Jul-17 04:01N 38°17' W 009°29'816.3
2019-Jul-17 03:31N 38°09' W 009°28'816.4
2019-Jul-17 03:01N 38°00' W 009°27'815.7
2019-Jul-17 02:30N 37°52' W 009°26'816.4
2019-Jul-17 02:00N 37°44' W 009°26'1217.9
2019-Jul-17 01:21N 37°33' W 009°26'2919.6
2019-Jul-16 23:51N 37°03' W 009°23'719.4
2019-Jul-16 23:30N 36°57' W 009°21'1519.5
2019-Jul-16 22:44N 36°45' W 009°09'519.6
2019-Jul-16 22:30N 36°43' W 009°04'1019.4
2019-Jul-16 22:00N 36°42' W 008°52'1019.8
2019-Jul-16 21:31N 36°41' W 008°40'1019.8
2019-Jul-16 21:00N 36°40' W 008°28'1019.7
2019-Jul-16 20:30N 36°40' W 008°15'1019.4
2019-Jul-16 20:00N 36°39' W 008°03'1019.5
2019-Jul-16 19:30N 36°39' W 007°51'1019.7
2019-Jul-16 19:00N 36°38' W 007°39'1019.9
2019-Jul-16 18:30N 36°38' W 007°27'158 7.0
2019-Jul-15 19:53N 36°12' W 004°14'7017.5
2019-Jul-15 15:52N 36°23' W 002°48'819.9
2019-Jul-15 15:29N 36°24' W 002°38'919.9
2019-Jul-15 15:00N 36°25' W 002°26'1019.5
2019-Jul-15 14:30N 36°26' W 002°14'918.4
2019-Jul-15 14:00N 36°32' W 002°06'22416.7
2019-Jul-15 00:34N 39°26' E 000°53'3817.0
2019-Jul-14 22:21N 39°60' E 001°17'3217.0
2019-Jul-14 20:28N 40°28' E 001°37'1017.0
2019-Jul-14 19:54N 40°36' E 001°43'2517.0
2019-Jul-14 18:26N 40°58' E 001°59'717.1
2019-Jul-14 18:00N 41°05' E 002°03'815.6
2019-Jul-14 17:30N 41°12' E 002°08'814.3
2019-Jul-14 16:58N 41°19' E 002°10'2 0.5
2019-Jul-14 13:07N 41°21' E 002°10'0 0.0
2019-Jul-14 12:58N 41°21' E 002°10'0 0.0
2019-Jul-14 12:28N 41°21' E 002°10'0 0.0
2019-Jul-14 11:58N 41°21' E 002°10'0 0.0
2019-Jul-14 11:28N 41°21' E 002°10'0 0.0
2019-Jul-14 10:58N 41°21' E 002°10'0 0.0
2019-Jul-14 10:28N 41°21' E 002°10'0 0.0
2019-Jul-14 09:55N 41°21' E 002°10'0 0.0
2019-Jul-14 09:28N 41°21' E 002°10'0 0.0
2019-Jul-14 08:58N 41°21' E 002°10'3 0.5
2019-Jul-14 03:07N 41°18' E 002°10'1 9.2
2019-Jul-14 03:00N 41°18' E 002°11'4311.0
2019-Jul-13 23:04N 41°16' E 003°08'1 9.4
2019-Jul-13 23:00N 41°16' E 003°09'5 9.5
2019-Jul-13 22:30N 41°16' E 003°15'5 9.4
2019-Jul-13 22:00N 41°16' E 003°22'5 9.1
2019-Jul-13 21:30N 41°16' E 003°28'4 8.8
2019-Jul-13 21:00N 41°16' E 003°34'4 8.7
2019-Jul-13 20:30N 41°16' E 003°39'9 8.6
2019-Jul-13 19:25N 41°16' E 003°52'4 8.7
2019-Jul-13 19:00N 41°16' E 003°57'13512.2
2019-Jul-13 07:58N 41°17' E 006°56'1816.1
2019-Jul-13 06:51N 41°17' E 007°20'616.1
2019-Jul-13 06:30N 41°17' E 007°27'816.1
2019-Jul-13 06:00N 41°17' E 007°38'4216.3
2019-Jul-13 03:26N 41°17' E 008°34'716.5
2019-Jul-13 03:01N 41°17' E 008°43'4315.2
2019-Jul-13 00:11N 41°29' E 009°38'2216.2
2019-Jul-12 22:49N 41°37' E 010°06'1616.8
2019-Jul-12 21:53N 41°50' E 010°18'716.3
2019-Jul-12 21:29N 41°55' E 010°24'1914.3
2019-Jul-12 20:11N 41°50' E 010°48'  

Dump ship's entire track history